createdAt,value
2018-03-02T00:00:18.330Z,0.00
2018-03-02T00:01:18.379Z,0.00
2018-03-02T00:02:18.328Z,0.00
2018-03-02T00:03:18.334Z,0.00
2018-03-02T00:04:18.330Z,0.00
2018-03-02T00:05:18.331Z,0.00
2018-03-02T00:06:18.333Z,0.00
2018-03-02T00:07:18.328Z,0.00
2018-03-02T00:08:18.332Z,0.00
2018-03-02T00:09:18.322Z,0.00
2018-03-02T00:10:18.323Z,0.00
2018-03-02T00:11:18.371Z,0.00
2018-03-02T00:12:18.326Z,0.00
2018-03-02T00:13:18.333Z,0.00
2018-03-02T00:14:18.324Z,0.00
2018-03-02T00:15:18.334Z,0.00
2018-03-02T00:16:18.329Z,0.00
2018-03-02T00:17:18.326Z,0.00
2018-03-02T00:18:18.326Z,0.00
2018-03-02T00:19:18.348Z,0.00
2018-03-02T00:20:18.346Z,0.00
2018-03-02T00:21:18.386Z,0.00
2018-03-02T00:22:18.321Z,0.00
2018-03-02T00:23:18.316Z,0.00
2018-03-02T00:24:18.321Z,0.00
2018-03-02T00:25:18.334Z,0.00
2018-03-02T00:26:18.326Z,0.00
2018-03-02T00:27:18.380Z,0.00
2018-03-02T00:28:18.326Z,0.00
2018-03-02T00:29:18.318Z,0.00
2018-03-02T00:30:18.323Z,0.00
2018-03-02T00:31:18.311Z,0.00
2018-03-02T00:32:18.342Z,0.00
2018-03-02T00:33:18.327Z,0.00
2018-03-02T00:34:18.324Z,0.00
2018-03-02T00:35:18.304Z,0.00
2018-03-02T00:36:18.314Z,0.00
2018-03-02T00:37:18.316Z,0.00
2018-03-02T00:38:18.320Z,0.00
2018-03-02T00:39:18.313Z,0.00
2018-03-02T00:40:18.368Z,0.00
2018-03-02T00:41:18.315Z,0.00
2018-03-02T00:42:18.316Z,0.00
2018-03-02T00:43:18.315Z,0.00
2018-03-02T00:44:18.311Z,0.00
2018-03-02T00:45:18.318Z,0.00
2018-03-02T00:46:18.312Z,0.00
2018-03-02T00:47:18.309Z,0.00
2018-03-02T00:48:18.313Z,0.00
2018-03-02T00:49:18.302Z,0.00
2018-03-02T00:50:18.305Z,0.00
2018-03-02T00:51:18.305Z,0.00
2018-03-02T00:52:18.308Z,0.00
2018-03-02T00:53:18.323Z,0.00
2018-03-02T00:54:18.325Z,0.00
2018-03-02T00:55:18.324Z,0.00
2018-03-02T00:56:18.300Z,0.00
2018-03-02T00:57:18.306Z,0.00
2018-03-02T00:58:18.314Z,0.00
2018-03-02T00:59:18.320Z,0.00
2018-03-02T01:00:18.303Z,0.00
2018-03-02T01:01:18.316Z,0.00
2018-03-02T01:02:18.297Z,0.00
2018-03-02T01:03:18.292Z,0.00
2018-03-02T01:04:18.298Z,0.00
2018-03-02T01:05:18.297Z,0.00
2018-03-02T01:06:18.303Z,0.00
2018-03-02T01:07:18.304Z,0.00
2018-03-02T01:08:18.316Z,0.00
2018-03-02T01:09:18.300Z,0.00
2018-03-02T01:10:18.299Z,0.00
2018-03-02T01:11:18.385Z,0.00
2018-03-02T01:12:18.319Z,0.00
2018-03-02T01:13:18.283Z,0.00
2018-03-02T01:14:18.310Z,0.00
2018-03-02T01:15:18.326Z,0.00
2018-03-02T01:16:18.288Z,0.00
2018-03-02T01:17:18.338Z,0.00
2018-03-02T01:18:18.303Z,0.00
2018-03-02T01:19:18.297Z,0.00
2018-03-02T01:20:18.287Z,0.00
2018-03-02T01:21:18.296Z,0.00
2018-03-02T01:22:18.312Z,0.00
2018-03-02T01:23:18.291Z,0.00
2018-03-02T01:24:18.291Z,0.00
2018-03-02T01:25:18.289Z,0.00
2018-03-02T01:26:18.292Z,0.00
2018-03-02T01:27:18.307Z,0.00
2018-03-02T01:28:18.319Z,0.00
2018-03-02T01:29:18.278Z,0.00
2018-03-02T01:30:18.297Z,0.00
2018-03-02T01:31:18.303Z,0.00
2018-03-02T01:32:18.289Z,0.00
2018-03-02T01:33:18.290Z,0.00
2018-03-02T01:34:18.344Z,0.00
2018-03-02T01:35:18.286Z,0.00
2018-03-02T01:36:18.295Z,0.00
2018-03-02T01:37:18.290Z,0.00
2018-03-02T01:38:18.288Z,0.00
2018-03-02T01:39:18.287Z,0.00
2018-03-02T01:40:18.295Z,0.00
2018-03-02T01:41:18.278Z,0.00
2018-03-02T01:42:18.305Z,0.00
2018-03-02T01:43:18.299Z,0.00
2018-03-02T01:44:18.273Z,0.00
2018-03-02T01:45:18.294Z,0.00
2018-03-02T01:46:18.283Z,0.00
2018-03-02T01:47:18.277Z,0.00
2018-03-02T01:48:18.279Z,0.00
2018-03-02T01:49:18.273Z,0.00
2018-03-02T01:50:18.296Z,0.00
2018-03-02T01:51:18.270Z,0.00
2018-03-02T01:52:18.311Z,0.00
2018-03-02T01:53:18.279Z,0.00
2018-03-02T01:54:18.280Z,0.00
2018-03-02T01:55:18.278Z,0.00
2018-03-02T01:56:18.280Z,0.00
2018-03-02T01:57:18.259Z,0.00
2018-03-02T01:58:18.295Z,0.00
2018-03-02T01:59:18.271Z,0.00
2018-03-02T02:00:18.269Z,0.00
2018-03-02T02:01:18.255Z,0.00
2018-03-02T02:02:18.264Z,0.00
2018-03-02T02:03:18.282Z,0.00
2018-03-02T02:04:18.263Z,0.00
2018-03-02T02:05:18.279Z,0.00
2018-03-02T02:06:18.281Z,0.00
2018-03-02T02:07:18.259Z,0.00
2018-03-02T02:08:18.254Z,0.00
2018-03-02T02:09:18.272Z,0.00
2018-03-02T02:10:18.259Z,0.00
2018-03-02T02:11:18.268Z,0.00
2018-03-02T02:12:18.281Z,0.00
2018-03-02T02:13:18.268Z,0.00
2018-03-02T02:14:18.255Z,0.00
2018-03-02T02:15:18.264Z,0.00
2018-03-02T02:16:18.251Z,0.00
2018-03-02T02:17:18.257Z,0.00
2018-03-02T02:18:18.261Z,0.00
2018-03-02T02:19:18.255Z,0.00
2018-03-02T02:20:18.250Z,0.00
2018-03-02T02:21:18.245Z,0.00
2018-03-02T02:22:18.252Z,0.00
2018-03-02T02:23:18.267Z,0.00
2018-03-02T02:24:18.273Z,0.00
2018-03-02T02:25:18.274Z,0.00
2018-03-02T02:26:18.242Z,0.00
2018-03-02T02:27:18.239Z,0.00
2018-03-02T02:28:18.247Z,0.00
2018-03-02T02:29:18.251Z,0.00
2018-03-02T02:30:18.247Z,0.00
2018-03-02T02:31:18.256Z,0.00
2018-03-02T02:32:18.240Z,0.00
2018-03-02T02:33:18.250Z,0.00
2018-03-02T02:34:18.241Z,0.00
2018-03-02T02:35:18.250Z,0.00
2018-03-02T02:36:18.242Z,0.00
2018-03-02T02:37:18.241Z,0.00
2018-03-02T02:38:18.276Z,0.00
2018-03-02T02:39:18.235Z,0.00
2018-03-02T02:40:18.255Z,0.00
2018-03-02T02:41:18.241Z,0.00
2018-03-02T02:42:18.283Z,0.00
2018-03-02T02:43:18.231Z,0.00
2018-03-02T02:44:18.243Z,0.00
2018-03-02T02:45:18.236Z,0.00
2018-03-02T02:46:18.235Z,0.00
2018-03-02T02:47:18.229Z,0.00
2018-03-02T02:48:18.224Z,0.00
2018-03-02T02:49:18.240Z,0.00
2018-03-02T02:50:18.250Z,0.00
2018-03-02T02:51:18.236Z,0.00
2018-03-02T02:52:18.224Z,0.00
2018-03-02T02:53:18.220Z,0.00
2018-03-02T02:54:18.227Z,0.00
2018-03-02T02:55:18.278Z,0.00
2018-03-02T02:56:18.225Z,0.00
2018-03-02T02:57:18.269Z,0.00
2018-03-02T02:58:18.236Z,0.00
2018-03-02T02:59:18.241Z,0.00
2018-03-02T03:00:18.214Z,0.00
2018-03-02T03:01:18.222Z,0.00
2018-03-02T03:02:18.224Z,0.00
2018-03-02T03:03:18.220Z,0.00
2018-03-02T03:04:18.222Z,0.00
2018-03-02T03:05:18.227Z,0.00
2018-03-02T03:06:18.210Z,0.00
2018-03-02T03:07:18.213Z,0.00
2018-03-02T03:08:18.235Z,0.00
2018-03-02T03:09:18.223Z,0.00
2018-03-02T03:10:18.235Z,0.00
2018-03-02T03:11:18.237Z,0.00
2018-03-02T03:12:18.206Z,0.00
2018-03-02T03:13:18.204Z,0.00
2018-03-02T03:14:18.200Z,0.00
2018-03-02T03:15:18.221Z,0.00
2018-03-02T03:16:18.221Z,0.00
2018-03-02T03:17:18.216Z,0.00
2018-03-02T03:18:18.227Z,0.00
2018-03-02T03:19:18.201Z,0.00
2018-03-02T03:20:18.200Z,0.00
2018-03-02T03:21:18.202Z,0.00
2018-03-02T03:22:18.215Z,0.00
2018-03-02T03:23:18.203Z,0.00
2018-03-02T03:24:18.197Z,0.00
2018-03-02T03:25:18.211Z,0.00
2018-03-02T03:26:18.212Z,0.00
2018-03-02T03:27:18.193Z,0.00
2018-03-02T03:28:18.208Z,0.00
2018-03-02T03:29:18.194Z,0.00
2018-03-02T03:30:18.199Z,0.00
2018-03-02T03:31:18.197Z,0.00
2018-03-02T03:32:18.194Z,0.00
2018-03-02T03:33:18.193Z,0.00
2018-03-02T03:34:18.187Z,0.00
2018-03-02T03:35:18.185Z,0.00
2018-03-02T03:36:18.219Z,0.00
2018-03-02T03:37:18.211Z,0.00
2018-03-02T03:38:18.190Z,0.00
2018-03-02T03:39:18.227Z,0.00
2018-03-02T03:40:18.183Z,0.00
2018-03-02T03:41:18.193Z,0.00
2018-03-02T03:42:18.256Z,0.00
2018-03-02T03:43:18.175Z,0.00
2018-03-02T03:44:18.176Z,0.00
2018-03-02T03:45:18.184Z,0.00
2018-03-02T03:46:18.191Z,0.00
2018-03-02T03:47:18.182Z,0.00
2018-03-02T03:48:18.182Z,0.00
2018-03-02T03:49:18.188Z,0.00
2018-03-02T03:50:18.166Z,0.00
2018-03-02T03:51:18.201Z,0.00
2018-03-02T03:52:18.215Z,0.00
2018-03-02T03:53:18.179Z,0.00
2018-03-02T03:54:18.183Z,0.00
2018-03-02T03:55:18.163Z,0.00
2018-03-02T03:56:18.161Z,0.00
2018-03-02T03:57:18.159Z,0.00
2018-03-02T03:58:18.163Z,0.00
2018-03-02T03:59:18.195Z,0.00
2018-03-02T04:00:18.163Z,0.00
2018-03-02T04:01:18.155Z,0.00
2018-03-02T04:02:18.160Z,0.00
2018-03-02T04:03:18.161Z,0.00
2018-03-02T04:04:18.166Z,0.00
2018-03-02T04:05:18.154Z,0.00
2018-03-02T04:06:18.147Z,0.00
2018-03-02T04:07:18.157Z,0.00
2018-03-02T04:08:18.151Z,0.00
2018-03-02T04:09:18.158Z,0.00
2018-03-02T04:10:18.214Z,0.00
2018-03-02T04:11:18.156Z,0.00
2018-03-02T04:12:18.150Z,0.00
2018-03-02T04:13:18.180Z,0.00
2018-03-02T04:14:18.159Z,0.00
2018-03-02T04:15:18.139Z,0.00
2018-03-02T04:16:18.153Z,0.00
2018-03-02T04:17:18.150Z,0.00
2018-03-02T04:18:18.141Z,0.00
2018-03-02T04:19:18.138Z,0.00
2018-03-02T04:20:18.148Z,0.00
2018-03-02T04:21:18.141Z,0.00
2018-03-02T04:22:18.132Z,0.00
2018-03-02T04:23:18.180Z,0.00
2018-03-02T04:24:18.131Z,0.00
2018-03-02T04:25:18.137Z,4.00
2018-03-02T04:26:18.997Z,0.00
2018-03-02T04:27:18.133Z,0.00
2018-03-02T04:28:18.126Z,0.00
2018-03-02T04:29:18.128Z,0.00
2018-03-02T04:30:18.125Z,0.00
2018-03-02T04:31:18.138Z,0.00
2018-03-02T04:32:18.129Z,0.00
2018-03-02T04:33:18.123Z,0.00
2018-03-02T04:34:18.131Z,0.00
2018-03-02T04:35:18.148Z,0.00
2018-03-02T04:36:18.152Z,0.00
2018-03-02T04:37:18.174Z,0.00
2018-03-02T04:38:18.109Z,0.00
2018-03-02T04:39:18.112Z,0.00
2018-03-02T04:40:18.119Z,0.00
2018-03-02T04:41:18.144Z,0.00
2018-03-02T04:42:18.109Z,0.00
2018-03-02T04:43:18.112Z,0.00
2018-03-02T04:44:18.126Z,0.00
2018-03-02T04:45:18.103Z,0.00
2018-03-02T04:46:18.112Z,0.00
2018-03-02T04:47:18.119Z,0.00
2018-03-02T04:48:18.122Z,0.00
2018-03-02T04:49:18.107Z,0.00
2018-03-02T04:50:18.106Z,0.00
2018-03-02T04:51:18.095Z,0.00
2018-03-02T04:52:18.110Z,0.00
2018-03-02T04:53:18.089Z,0.00
2018-03-02T04:54:18.103Z,0.00
2018-03-02T04:55:18.094Z,0.00
2018-03-02T04:56:18.101Z,0.00
2018-03-02T04:57:18.182Z,0.00
2018-03-02T04:58:18.101Z,0.00
2018-03-02T04:59:18.080Z,0.00
2018-03-02T05:00:18.084Z,0.00
2018-03-02T05:01:18.104Z,0.00
2018-03-02T05:02:18.100Z,0.00
2018-03-02T05:03:18.095Z,0.00
2018-03-02T05:04:18.081Z,0.00
2018-03-02T05:05:18.094Z,0.00
2018-03-02T05:06:18.073Z,0.00
2018-03-02T05:07:18.076Z,0.00
2018-03-02T05:08:18.075Z,0.00
2018-03-02T05:09:18.091Z,0.00
2018-03-02T05:10:18.079Z,0.00
2018-03-02T05:11:18.104Z,0.00
2018-03-02T05:12:18.066Z,0.00
2018-03-02T05:13:18.096Z,0.00
2018-03-02T05:14:18.066Z,0.00
2018-03-02T05:15:18.074Z,0.00
2018-03-02T05:16:18.067Z,0.00
2018-03-02T05:17:18.063Z,0.00
2018-03-02T05:18:18.061Z,0.00
2018-03-02T05:19:18.065Z,0.00
2018-03-02T05:20:18.071Z,0.00
2018-03-02T05:21:18.057Z,0.00
2018-03-02T05:22:18.052Z,0.00
2018-03-02T05:23:18.982Z,0.00
2018-03-02T05:24:18.052Z,0.00
2018-03-02T05:25:18.067Z,0.00
2018-03-02T05:26:18.054Z,0.00
2018-03-02T05:27:18.050Z,0.00
2018-03-02T05:28:18.048Z,0.00
2018-03-02T05:29:18.042Z,0.00
2018-03-02T05:30:18.045Z,0.00
2018-03-02T05:31:18.036Z,0.00
2018-03-02T05:32:18.051Z,0.00
2018-03-02T05:33:18.045Z,0.00
2018-03-02T05:34:18.042Z,4.00
2018-03-02T05:35:18.041Z,0.00
2018-03-02T05:36:18.025Z,0.00
2018-03-02T05:37:18.034Z,4.00
2018-03-02T05:38:18.044Z,0.00
2018-03-02T05:39:18.036Z,0.00
2018-03-02T05:40:18.029Z,4.00
2018-03-02T05:41:18.029Z,4.00
2018-03-02T05:42:18.022Z,0.00
2018-03-02T05:43:18.025Z,4.00
2018-03-02T05:44:18.081Z,4.00
2018-03-02T05:45:18.035Z,4.00
2018-03-02T05:46:18.039Z,4.00
2018-03-02T05:47:18.019Z,8.00
2018-03-02T05:48:18.026Z,8.00
2018-03-02T05:49:18.018Z,8.00
2018-03-02T05:50:18.019Z,8.00
2018-03-02T05:51:18.029Z,12.00
2018-03-02T05:52:18.021Z,12.00
2018-03-02T05:53:18.026Z,16.00
2018-03-02T05:54:18.011Z,16.00
2018-03-02T05:55:18.013Z,24.00
2018-03-02T05:56:18.010Z,24.00
2018-03-02T05:57:18.018Z,28.00
2018-03-02T05:58:18.011Z,36.00
2018-03-02T05:59:18.005Z,40.00
2018-03-02T06:00:18.024Z,52.00
2018-03-02T06:01:17.988Z,56.00
2018-03-02T06:02:17.994Z,64.00
2018-03-02T06:03:18.004Z,72.00
2018-03-02T06:04:18.004Z,80.00
2018-03-02T06:05:17.997Z,92.00
2018-03-02T06:06:17.993Z,100.00
2018-03-02T06:07:18.007Z,112.00
2018-03-02T06:08:17.990Z,124.00
2018-03-02T06:09:17.987Z,140.00
2018-03-02T06:10:18.048Z,156.00
2018-03-02T06:11:17.990Z,172.00
2018-03-02T06:12:17.983Z,188.00
2018-03-02T06:13:17.983Z,208.00
2018-03-02T06:14:17.971Z,228.00
2018-03-02T06:15:17.976Z,244.00
2018-03-02T06:16:17.991Z,264.00
2018-03-02T06:17:17.977Z,288.00
2018-03-02T06:18:17.970Z,320.00
2018-03-02T06:19:17.989Z,340.00
2018-03-02T06:20:17.985Z,368.00
2018-03-02T06:21:17.970Z,404.00
2018-03-02T06:22:17.963Z,436.00
2018-03-02T06:23:18.017Z,476.00
2018-03-02T06:24:17.962Z,512.00
2018-03-02T06:25:17.966Z,556.00
2018-03-02T06:26:17.960Z,600.00
2018-03-02T06:27:17.954Z,656.00
2018-03-02T06:28:17.969Z,708.00
2018-03-02T06:29:17.951Z,776.00
2018-03-02T06:30:17.974Z,852.00
2018-03-02T06:31:17.958Z,916.00
2018-03-02T06:32:17.960Z,968.00
2018-03-02T06:33:17.958Z,1020.00
2018-03-02T06:34:17.947Z,1088.00
2018-03-02T06:35:17.985Z,1172.00
2018-03-02T06:36:17.946Z,1260.00
2018-03-02T06:37:17.944Z,1352.00
2018-03-02T06:38:17.952Z,1436.00
2018-03-02T06:39:17.944Z,1516.00
2018-03-02T06:40:17.967Z,1596.00
2018-03-02T06:41:18.058Z,1672.00
2018-03-02T06:42:17.958Z,1756.00
2018-03-02T06:43:17.931Z,1984.00
2018-03-02T06:44:17.946Z,2564.00
2018-03-02T06:45:17.960Z,2828.00
2018-03-02T06:46:17.927Z,2932.00
2018-03-02T06:47:17.972Z,3020.00
2018-03-02T06:48:17.944Z,3304.00
2018-03-02T06:49:17.927Z,3372.00
2018-03-02T06:50:17.926Z,3524.00
2018-03-02T06:51:17.956Z,3784.00
2018-03-02T06:52:17.933Z,3712.00
2018-03-02T06:53:17.931Z,3816.00
2018-03-02T06:54:18.017Z,4288.00
2018-03-02T06:55:17.922Z,4640.00
2018-03-02T06:56:17.919Z,4856.00
2018-03-02T06:57:17.941Z,4304.00
2018-03-02T06:58:17.914Z,3980.00
2018-03-02T06:59:17.913Z,4216.00
2018-03-02T07:00:17.914Z,4340.00
2018-03-02T07:01:17.909Z,4444.00
2018-03-02T07:02:17.926Z,5388.00
2018-03-02T07:03:17.935Z,6184.00
2018-03-02T07:04:17.959Z,5384.00
2018-03-02T07:05:17.913Z,5656.00
2018-03-02T07:06:17.915Z,5784.00
2018-03-02T07:07:17.940Z,5460.00
2018-03-02T07:08:17.919Z,5160.00
2018-03-02T07:09:17.913Z,4780.00
2018-03-02T07:10:17.916Z,4576.00
2018-03-02T07:11:17.919Z,4432.00
2018-03-02T07:12:17.916Z,4504.00
2018-03-02T07:13:17.923Z,4572.00
2018-03-02T07:14:17.908Z,4724.00
2018-03-02T07:15:17.916Z,4956.00
2018-03-02T07:16:17.913Z,5924.00
2018-03-02T07:17:17.934Z,7264.00
2018-03-02T07:18:17.928Z,8464.00
2018-03-02T07:19:17.914Z,7588.00
2018-03-02T07:20:17.976Z,6312.00
2018-03-02T07:21:17.940Z,9256.00
2018-03-02T07:22:17.913Z,13856.00
2018-03-02T07:23:17.904Z,15008.00
2018-03-02T07:24:17.903Z,14976.00
2018-03-02T07:25:17.957Z,14272.00
2018-03-02T07:26:17.909Z,14624.00
2018-03-02T07:27:17.907Z,18944.00
2018-03-02T07:28:17.917Z,18656.00
2018-03-02T07:29:17.909Z,19232.00
2018-03-02T07:30:17.910Z,20480.00
2018-03-02T07:31:17.916Z,20704.00
2018-03-02T07:32:17.902Z,21792.00
2018-03-02T07:33:17.911Z,22304.00
2018-03-02T07:34:17.916Z,22688.00
2018-03-02T07:35:17.915Z,22976.00
2018-03-02T07:36:17.912Z,22688.00
2018-03-02T07:37:17.914Z,23552.00
2018-03-02T07:38:18.053Z,23616.00
2018-03-02T07:39:17.911Z,24512.00
2018-03-02T07:40:17.996Z,24864.00
2018-03-02T07:41:17.954Z,23488.00
2018-03-02T07:42:17.911Z,23616.00
2018-03-02T07:43:17.921Z,22880.00
2018-03-02T07:44:17.937Z,21728.00
2018-03-02T07:45:17.918Z,21376.00
2018-03-02T07:46:17.924Z,21248.00
2018-03-02T07:47:17.927Z,21536.00
2018-03-02T07:48:17.935Z,22048.00
2018-03-02T07:49:17.928Z,24128.00
2018-03-02T07:50:17.931Z,22912.00
2018-03-02T07:51:17.978Z,23936.00
2018-03-02T07:52:17.957Z,26368.00
2018-03-02T07:53:17.949Z,24608.00
2018-03-02T07:54:18.000Z,24960.00
2018-03-02T07:55:17.954Z,25376.00
2018-03-02T07:56:17.956Z,26400.00
2018-03-02T07:57:17.971Z,28800.00
2018-03-02T07:58:18.008Z,29856.00
2018-03-02T07:59:17.967Z,31104.00
2018-03-02T08:00:17.986Z,32032.00
2018-03-02T08:01:18.017Z,31008.00
2018-03-02T08:02:17.978Z,30560.00
2018-03-02T08:03:18.012Z,30560.00
2018-03-02T08:04:18.165Z,32704.00
2018-03-02T08:05:17.982Z,32544.00
2018-03-02T08:06:17.994Z,32000.00
2018-03-02T08:07:17.984Z,34624.00
2018-03-02T08:08:17.997Z,35904.00
2018-03-02T08:09:17.992Z,36032.00
2018-03-02T08:10:18.010Z,35872.00
2018-03-02T08:11:18.026Z,36768.00
2018-03-02T08:12:18.032Z,37856.00
2018-03-02T08:13:18.021Z,37472.00
2018-03-02T08:14:18.023Z,37152.00
2018-03-02T08:15:18.031Z,35008.00
2018-03-02T08:16:18.069Z,38144.00
2018-03-02T08:17:18.039Z,41984.00
2018-03-02T08:18:18.038Z,41056.00
2018-03-02T08:19:18.064Z,45184.00
2018-03-02T08:20:18.052Z,50368.00
2018-03-02T08:21:18.061Z,46816.00
2018-03-02T08:22:18.058Z,43520.00
2018-03-02T08:23:18.071Z,42272.00
2018-03-02T08:24:18.071Z,40768.00
2018-03-02T08:25:18.083Z,41216.00
2018-03-02T08:26:18.091Z,42336.00
2018-03-02T08:27:18.100Z,39648.00
2018-03-02T08:28:18.092Z,37120.00
2018-03-02T08:29:18.115Z,37504.00
2018-03-02T08:30:18.125Z,37312.00
2018-03-02T08:31:18.114Z,37056.00
2018-03-02T08:32:18.132Z,37728.00
2018-03-02T08:33:18.127Z,38912.00
2018-03-02T08:34:18.145Z,53888.00
2018-03-02T08:35:18.157Z,62368.00
2018-03-02T08:36:18.154Z,42656.00
2018-03-02T08:37:18.158Z,31904.00
2018-03-02T08:38:18.163Z,32384.00
2018-03-02T08:39:18.171Z,31168.00
2018-03-02T08:40:18.180Z,31520.00
2018-03-02T08:41:18.251Z,38144.00
2018-03-02T08:42:18.185Z,40288.00
2018-03-02T08:43:18.221Z,38720.00
2018-03-02T08:44:18.203Z,42912.00
2018-03-02T08:45:18.261Z,43584.00
2018-03-02T08:46:18.216Z,46112.00
2018-03-02T08:47:18.236Z,46976.00
2018-03-02T08:48:18.227Z,48224.00
2018-03-02T08:49:18.235Z,55840.00
2018-03-02T08:50:18.237Z,56608.00
2018-03-02T08:51:18.261Z,53184.00
2018-03-02T08:52:18.262Z,52928.00
2018-03-02T08:53:18.268Z,54144.00
2018-03-02T08:54:18.318Z,53632.00
2018-03-02T08:55:18.275Z,51808.00
2018-03-02T08:56:18.292Z,53152.00
2018-03-02T08:57:18.300Z,54656.00
2018-03-02T08:58:18.307Z,53728.00
2018-03-02T08:59:18.316Z,48608.00
2018-03-02T09:00:18.317Z,45696.00
2018-03-02T09:01:18.331Z,38816.00
2018-03-02T09:02:18.346Z,37312.00
2018-03-02T09:03:18.353Z,41504.00
2018-03-02T09:04:18.356Z,46496.00
2018-03-02T09:05:18.421Z,49856.00
2018-03-02T09:06:18.414Z,52704.00
2018-03-02T09:07:18.387Z,59200.00
2018-03-02T09:08:18.515Z,56416.00
2018-03-02T09:09:18.408Z,58208.00
2018-03-02T09:10:18.408Z,56672.00
2018-03-02T09:11:18.415Z,54016.00
2018-03-02T09:12:18.425Z,57504.00
2018-03-02T09:13:18.440Z,58144.00
2018-03-02T09:14:18.475Z,58560.00
2018-03-02T09:15:18.451Z,59200.00
2018-03-02T09:16:18.489Z,61344.00
2018-03-02T09:17:18.489Z,62688.00
2018-03-02T09:18:18.477Z,59616.00
2018-03-02T09:19:18.485Z,56416.00
2018-03-02T09:20:18.486Z,55040.00
2018-03-02T09:21:18.517Z,56768.00
2018-03-02T09:22:18.521Z,55040.00
2018-03-02T09:23:18.538Z,52384.00
2018-03-02T09:24:18.540Z,55456.00
2018-03-02T09:25:18.554Z,51040.00
2018-03-02T09:26:18.553Z,48352.00
2018-03-02T09:27:18.575Z,47488.00
2018-03-02T09:28:18.583Z,51200.00
2018-03-02T09:29:18.608Z,40032.00
2018-03-02T09:30:18.601Z,49760.00
2018-03-02T09:31:18.611Z,42048.00
2018-03-02T09:32:18.612Z,46304.00
2018-03-02T09:33:18.617Z,40448.00
2018-03-02T09:34:18.643Z,41056.00
2018-03-02T09:35:18.640Z,44096.00
2018-03-02T09:36:18.676Z,40992.00
2018-03-02T09:37:18.689Z,42112.00
2018-03-02T09:38:18.683Z,39136.00
2018-03-02T09:39:18.694Z,39424.00
2018-03-02T09:40:18.704Z,44864.00
2018-03-02T09:41:18.698Z,42112.00
2018-03-02T09:42:18.705Z,39392.00
2018-03-02T09:43:18.762Z,50048.00
2018-03-02T09:44:18.727Z,52896.00
2018-03-02T09:45:18.741Z,50848.00
2018-03-02T09:46:18.740Z,60384.00
2018-03-02T09:47:18.745Z,64096.00
2018-03-02T09:48:18.762Z,64992.00
2018-03-02T09:49:18.767Z,60960.00
2018-03-02T09:50:18.765Z,64864.00
2018-03-02T09:51:18.778Z,68288.00
2018-03-02T09:52:18.848Z,67680.00
2018-03-02T09:53:18.790Z,66208.00
2018-03-02T09:54:18.813Z,70368.00
2018-03-02T09:55:18.860Z,71552.00
2018-03-02T09:56:18.858Z,69216.00
2018-03-02T09:57:18.840Z,70976.00
2018-03-02T09:58:18.978Z,72768.00
2018-03-02T09:59:18.868Z,71392.00
2018-03-02T10:00:18.859Z,71328.00
2018-03-02T10:01:18.876Z,71904.00
2018-03-02T10:02:18.889Z,71040.00
2018-03-02T10:03:18.895Z,70304.00
2018-03-02T10:04:18.917Z,68800.00
2018-03-02T10:05:18.927Z,70240.00
2018-03-02T10:06:19.068Z,72640.00
2018-03-02T10:07:18.954Z,73696.00
2018-03-02T10:08:18.939Z,75616.00
2018-03-02T10:09:18.961Z,73504.00
2018-03-02T10:10:18.989Z,73120.00
2018-03-02T10:11:18.981Z,72672.00
2018-03-02T10:12:19.015Z,73024.00
2018-03-02T10:13:19.032Z,73792.00
2018-03-02T10:14:19.014Z,75712.00
2018-03-02T10:15:19.042Z,74816.00
2018-03-02T10:16:19.051Z,72800.00
2018-03-02T10:17:19.103Z,74336.00
2018-03-02T10:18:19.084Z,73536.00
2018-03-02T10:19:19.074Z,73472.00
2018-03-02T10:20:19.109Z,72960.00
2018-03-02T10:21:19.163Z,71168.00
2018-03-02T10:22:19.121Z,77792.00
2018-03-02T10:23:19.195Z,76576.00
2018-03-02T10:24:19.140Z,77504.00
2018-03-02T10:25:19.141Z,77824.00
2018-03-02T10:26:19.177Z,80448.00
2018-03-02T10:27:19.180Z,74784.00
2018-03-02T10:28:19.174Z,76672.00
2018-03-02T10:29:19.193Z,79840.00
2018-03-02T10:30:19.210Z,77792.00
2018-03-02T10:31:19.230Z,73280.00
2018-03-02T10:32:19.226Z,75456.00
2018-03-02T10:33:19.239Z,73600.00
2018-03-02T10:34:19.243Z,74336.00
2018-03-02T10:35:19.272Z,71936.00
2018-03-02T10:36:19.279Z,73152.00
2018-03-02T10:37:19.333Z,75328.00
2018-03-02T10:38:19.289Z,77824.00
2018-03-02T10:39:19.317Z,74240.00
2018-03-02T10:40:19.355Z,78496.00
2018-03-02T10:41:19.370Z,78400.00
2018-03-02T10:42:19.408Z,76544.00
2018-03-02T10:43:19.379Z,80320.00
2018-03-02T10:44:19.383Z,78272.00
2018-03-02T10:45:19.394Z,73376.00
2018-03-02T10:46:19.396Z,72864.00
2018-03-02T10:47:19.430Z,71424.00
2018-03-02T10:48:19.428Z,75520.00
2018-03-02T10:49:19.426Z,71328.00
2018-03-02T10:50:19.440Z,74464.00
2018-03-02T10:51:19.460Z,76800.00
2018-03-02T10:52:19.475Z,76224.00
2018-03-02T10:53:19.506Z,77408.00
2018-03-02T10:54:19.504Z,76928.00
2018-03-02T10:55:19.511Z,76256.00
2018-03-02T10:56:19.538Z,75648.00
2018-03-02T10:57:19.531Z,77024.00
2018-03-02T10:58:19.541Z,75872.00
2018-03-02T10:59:19.550Z,72608.00
2018-03-02T11:00:19.594Z,67008.00
2018-03-02T11:01:19.632Z,69664.00
2018-03-02T11:02:19.591Z,72864.00
2018-03-02T11:03:19.599Z,76864.00
2018-03-02T11:04:19.628Z,77216.00
2018-03-02T11:05:19.623Z,77760.00
2018-03-02T11:06:19.686Z,75424.00
2018-03-02T11:07:19.709Z,73120.00
2018-03-02T11:08:19.829Z,72928.00
2018-03-02T11:09:19.691Z,76448.00
2018-03-02T11:10:19.696Z,76768.00
2018-03-02T11:11:19.737Z,73536.00
2018-03-02T11:12:19.735Z,72544.00
2018-03-02T11:13:19.869Z,71872.00
2018-03-02T11:14:19.743Z,71040.00
2018-03-02T11:15:19.784Z,69408.00
2018-03-02T11:16:19.841Z,69696.00
2018-03-02T11:17:19.775Z,68960.00
2018-03-02T11:18:19.801Z,69216.00
2018-03-02T11:19:19.800Z,70752.00
2018-03-02T11:20:19.812Z,74240.00
2018-03-02T11:21:19.868Z,76160.00
2018-03-02T11:22:19.833Z,74912.00
2018-03-02T11:23:19.911Z,73504.00
2018-03-02T11:24:19.867Z,73280.00
2018-03-02T11:25:19.897Z,73312.00
2018-03-02T11:26:19.897Z,72288.00
2018-03-02T11:27:19.908Z,71872.00
2018-03-02T11:28:19.929Z,73312.00
2018-03-02T11:29:19.934Z,77472.00
2018-03-02T11:30:19.948Z,75040.00
2018-03-02T11:31:19.960Z,74688.00
2018-03-02T11:32:20.010Z,74016.00
2018-03-02T11:33:19.984Z,72416.00
2018-03-02T11:34:20.012Z,72832.00
2018-03-02T11:35:20.032Z,73056.00
2018-03-02T11:36:20.113Z,70464.00
2018-03-02T11:37:20.032Z,68544.00
2018-03-02T11:38:20.050Z,72864.00
2018-03-02T11:39:20.240Z,72544.00
2018-03-02T11:40:20.079Z,70912.00
2018-03-02T11:41:20.082Z,68768.00
2018-03-02T11:42:20.112Z,68544.00
2018-03-02T11:43:20.119Z,67168.00
2018-03-02T11:44:20.123Z,65888.00
2018-03-02T11:45:20.136Z,67552.00
2018-03-02T11:46:20.151Z,71264.00
2018-03-02T11:47:20.169Z,69568.00
2018-03-02T11:48:20.183Z,68960.00
2018-03-02T11:49:20.195Z,68064.00
2018-03-02T11:50:20.205Z,66176.00
2018-03-02T11:51:20.234Z,73408.00
2018-03-02T11:52:20.233Z,69696.00
2018-03-02T11:53:20.247Z,74496.00
2018-03-02T11:54:20.264Z,77184.00
2018-03-02T11:55:20.285Z,78432.00
2018-03-02T11:56:20.293Z,74304.00
2018-03-02T11:57:20.302Z,72288.00
2018-03-02T11:58:20.312Z,74592.00
2018-03-02T11:59:20.323Z,76192.00
2018-03-02T12:00:20.351Z,75552.00
2018-03-02T12:01:20.349Z,77088.00
2018-03-02T12:02:20.352Z,78048.00
2018-03-02T12:03:20.387Z,79424.00
2018-03-02T12:04:20.413Z,76512.00
2018-03-02T12:05:20.398Z,74496.00
2018-03-02T12:06:20.418Z,78144.00
2018-03-02T12:07:20.427Z,77568.00
2018-03-02T12:08:20.437Z,79296.00
2018-03-02T12:09:20.492Z,79616.00
2018-03-02T12:10:20.461Z,75104.00
2018-03-02T12:11:20.612Z,76064.00
2018-03-02T12:12:20.509Z,77664.00
2018-03-02T12:13:20.508Z,76416.00
2018-03-02T12:14:20.532Z,77504.00
2018-03-02T12:15:20.552Z,78208.00
2018-03-02T12:16:20.546Z,75072.00
2018-03-02T12:17:20.553Z,73376.00
2018-03-02T12:18:20.579Z,74592.00
2018-03-02T12:19:20.588Z,78176.00
2018-03-02T12:20:20.606Z,75520.00
2018-03-02T12:21:20.714Z,73952.00
2018-03-02T12:22:20.675Z,78304.00
2018-03-02T12:23:20.635Z,76576.00
2018-03-02T12:24:20.689Z,74240.00
2018-03-02T12:25:20.670Z,73024.00
2018-03-02T12:26:20.677Z,73408.00
2018-03-02T12:27:20.689Z,75232.00
2018-03-02T12:28:20.712Z,74272.00
2018-03-02T12:29:20.739Z,73472.00
2018-03-02T12:30:20.737Z,73472.00